sensor_id;sensor_type;location;lat;lon;timestamp;P1;durP1;ratioP1;P2;durP2;ratioP2
6985;SDS011;3533;51.246;6.850;2023-06-14T00:01:37;4.60;;;4.40;;
6985;SDS011;3533;51.246;6.850;2023-06-14T00:04:03;4.63;;;4.43;;
6985;SDS011;3533;51.246;6.850;2023-06-14T00:06:29;4.50;;;4.30;;
6985;SDS011;3533;51.246;6.850;2023-06-14T00:08:55;4.00;;;3.80;;
6985;SDS011;3533;51.246;6.850;2023-06-14T00:11:21;4.27;;;3.97;;
6985;SDS011;3533;51.246;6.850;2023-06-14T00:13:46;4.47;;;4.27;;
6985;SDS011;3533;51.246;6.850;2023-06-14T00:16:14;4.50;;;4.30;;
6985;SDS011;3533;51.246;6.850;2023-06-14T00:18:41;4.83;;;4.63;;
6985;SDS011;3533;51.246;6.850;2023-06-14T00:21:07;5.10;;;4.80;;
6985;SDS011;3533;51.246;6.850;2023-06-14T00:23:33;4.70;;;4.40;;
6985;SDS011;3533;51.246;6.850;2023-06-14T00:25:59;4.67;;;4.40;;
6985;SDS011;3533;51.246;6.850;2023-06-14T00:28:24;4.87;;;4.60;;
6985;SDS011;3533;51.246;6.850;2023-06-14T00:30:50;4.70;;;4.50;;
6985;SDS011;3533;51.246;6.850;2023-06-14T00:33:15;5.00;;;4.67;;
6985;SDS011;3533;51.246;6.850;2023-06-14T00:35:41;4.93;;;4.63;;
6985;SDS011;3533;51.246;6.850;2023-06-14T00:38:06;4.77;;;4.57;;
6985;SDS011;3533;51.246;6.850;2023-06-14T00:40:32;5.13;;;4.93;;
6985;SDS011;3533;51.246;6.850;2023-06-14T00:42:57;4.60;;;4.40;;
6985;SDS011;3533;51.246;6.850;2023-06-14T00:45:23;4.43;;;4.23;;
6985;SDS011;3533;51.246;6.850;2023-06-14T00:47:48;4.43;;;4.23;;
6985;SDS011;3533;51.246;6.850;2023-06-14T00:50:17;4.10;;;3.90;;
6985;SDS011;3533;51.246;6.850;2023-06-14T00:52:44;4.47;;;4.27;;
6985;SDS011;3533;51.246;6.850;2023-06-14T00:55:09;4.63;;;4.33;;
6985;SDS011;3533;51.246;6.850;2023-06-14T00:57:35;4.37;;;4.17;;
6985;SDS011;3533;51.246;6.850;2023-06-14T01:00:02;5.00;;;4.80;;
6985;SDS011;3533;51.246;6.850;2023-06-14T01:02:29;4.50;;;4.30;;
6985;SDS011;3533;51.246;6.850;2023-06-14T01:04:55;4.97;;;4.77;;
6985;SDS011;3533;51.246;6.850;2023-06-14T01:10:08;4.30;;;4.10;;
6985;SDS011;3533;51.246;6.850;2023-06-14T01:15:13;4.60;;;4.40;;
6985;SDS011;3533;51.246;6.850;2023-06-14T01:17:40;4.33;;;4.13;;
6985;SDS011;3533;51.246;6.850;2023-06-14T01:20:09;4.33;;;4.13;;
6985;SDS011;3533;51.246;6.850;2023-06-14T01:22:45;4.87;;;4.57;;
6985;SDS011;3533;51.246;6.850;2023-06-14T01:25:15;4.40;;;4.20;;
6985;SDS011;3533;51.246;6.850;2023-06-14T01:27:41;4.10;;;3.90;;
6985;SDS011;3533;51.246;6.850;2023-06-14T01:30:07;4.43;;;4.23;;
6985;SDS011;3533;51.246;6.850;2023-06-14T01:32:34;5.00;;;4.80;;
6985;SDS011;3533;51.246;6.850;2023-06-14T01:35:01;4.77;;;4.57;;
6985;SDS011;3533;51.246;6.850;2023-06-14T01:37:28;5.30;;;5.00;;
6985;SDS011;3533;51.246;6.850;2023-06-14T01:39:55;4.60;;;4.40;;
6985;SDS011;3533;51.246;6.850;2023-06-14T01:42:21;4.77;;;4.57;;
6985;SDS011;3533;51.246;6.850;2023-06-14T01:44:48;4.63;;;4.33;;
6985;SDS011;3533;51.246;6.850;2023-06-14T01:47:16;4.40;;;4.20;;
6985;SDS011;3533;51.246;6.850;2023-06-14T01:49:41;4.83;;;4.53;;
6985;SDS011;3533;51.246;6.850;2023-06-14T01:52:07;4.90;;;4.47;;
6985;SDS011;3533;51.246;6.850;2023-06-14T01:54:34;4.70;;;4.50;;
6985;SDS011;3533;51.246;6.850;2023-06-14T01:57:02;4.70;;;4.50;;
6985;SDS011;3533;51.246;6.850;2023-06-14T01:59:28;4.80;;;4.60;;
6985;SDS011;3533;51.246;6.850;2023-06-14T02:01:56;4.20;;;4.00;;
6985;SDS011;3533;51.246;6.850;2023-06-14T02:04:21;4.50;;;4.30;;
6985;SDS011;3533;51.246;6.850;2023-06-14T02:06:47;4.67;;;4.47;;
6985;SDS011;3533;51.246;6.850;2023-06-14T02:09:12;5.13;;;4.83;;
6985;SDS011;3533;51.246;6.850;2023-06-14T02:11:38;4.80;;;4.60;;
6985;SDS011;3533;51.246;6.850;2023-06-14T02:14:04;4.60;;;4.40;;
6985;SDS011;3533;51.246;6.850;2023-06-14T02:16:29;4.60;;;4.40;;
6985;SDS011;3533;51.246;6.850;2023-06-14T02:18:55;5.43;;;5.00;;
6985;SDS011;3533;51.246;6.850;2023-06-14T02:21:21;4.33;;;4.13;;
6985;SDS011;3533;51.246;6.850;2023-06-14T02:23:47;5.37;;;4.97;;
6985;SDS011;3533;51.246;6.850;2023-06-14T02:26:13;4.67;;;4.47;;
6985;SDS011;3533;51.246;6.850;2023-06-14T02:28:38;4.63;;;4.43;;
6985;SDS011;3533;51.246;6.850;2023-06-14T02:31:04;4.80;;;4.50;;
6985;SDS011;3533;51.246;6.850;2023-06-14T02:33:29;4.27;;;4.07;;
6985;SDS011;3533;51.246;6.850;2023-06-14T02:35:55;4.37;;;4.17;;
6985;SDS011;3533;51.246;6.850;2023-06-14T02:38:21;4.80;;;4.60;;
6985;SDS011;3533;51.246;6.850;2023-06-14T02:40:46;4.33;;;4.13;;
6985;SDS011;3533;51.246;6.850;2023-06-14T02:43:12;4.57;;;4.37;;
6985;SDS011;3533;51.246;6.850;2023-06-14T02:45:37;4.90;;;4.70;;
6985;SDS011;3533;51.246;6.850;2023-06-14T02:48:03;4.60;;;4.40;;
6985;SDS011;3533;51.246;6.850;2023-06-14T02:50:29;4.60;;;4.40;;
6985;SDS011;3533;51.246;6.850;2023-06-14T02:52:55;5.27;;;4.97;;
6985;SDS011;3533;51.246;6.850;2023-06-14T02:55:22;5.23;;;4.93;;
6985;SDS011;3533;51.246;6.850;2023-06-14T02:57:47;4.77;;;4.47;;
6985;SDS011;3533;51.246;6.850;2023-06-14T03:00:13;4.70;;;4.50;;
6985;SDS011;3533;51.246;6.850;2023-06-14T03:02:39;4.83;;;4.63;;
6985;SDS011;3533;51.246;6.850;2023-06-14T03:05:04;4.50;;;4.30;;
6985;SDS011;3533;51.246;6.850;2023-06-14T03:07:32;4.37;;;4.17;;
6985;SDS011;3533;51.246;6.850;2023-06-14T03:09:57;4.80;;;4.50;;
6985;SDS011;3533;51.246;6.850;2023-06-14T03:12:23;4.97;;;4.67;;
6985;SDS011;3533;51.246;6.850;2023-06-14T03:14:48;4.70;;;4.50;;
6985;SDS011;3533;51.246;6.850;2023-06-14T03:17:15;5.87;;;5.30;;
6985;SDS011;3533;51.246;6.850;2023-06-14T03:19:42;5.10;;;4.90;;
6985;SDS011;3533;51.246;6.850;2023-06-14T03:22:08;5.37;;;5.00;;
6985;SDS011;3533;51.246;6.850;2023-06-14T03:24:33;4.90;;;4.60;;
6985;SDS011;3533;51.246;6.850;2023-06-14T03:27:01;4.20;;;4.00;;
6985;SDS011;3533;51.246;6.850;2023-06-14T03:29:27;6.03;;;5.53;;
6985;SDS011;3533;51.246;6.850;2023-06-14T03:32:00;5.30;;;5.00;;
6985;SDS011;3533;51.246;6.850;2023-06-14T03:34:26;5.03;;;4.73;;
6985;SDS011;3533;51.246;6.850;2023-06-14T03:36:52;5.10;;;4.80;;
6985;SDS011;3533;51.246;6.850;2023-06-14T03:39:18;5.03;;;4.83;;
6985;SDS011;3533;51.246;6.850;2023-06-14T03:41:44;6.10;;;5.60;;
6985;SDS011;3533;51.246;6.850;2023-06-14T03:44:10;4.60;;;4.40;;
6985;SDS011;3533;51.246;6.850;2023-06-14T03:46:35;5.50;;;4.90;;
6985;SDS011;3533;51.246;6.850;2023-06-14T03:49:01;4.90;;;4.60;;
6985;SDS011;3533;51.246;6.850;2023-06-14T03:51:28;5.10;;;4.80;;
6985;SDS011;3533;51.246;6.850;2023-06-14T03:53:54;4.83;;;4.63;;
6985;SDS011;3533;51.246;6.850;2023-06-14T03:56:20;6.13;;;4.70;;
6985;SDS011;3533;51.246;6.850;2023-06-14T03:58:46;5.00;;;4.70;;
6985;SDS011;3533;51.246;6.850;2023-06-14T04:01:12;5.60;;;5.30;;
6985;SDS011;3533;51.246;6.850;2023-06-14T04:03:37;5.23;;;4.93;;
6985;SDS011;3533;51.246;6.850;2023-06-14T04:06:05;4.87;;;4.57;;
6985;SDS011;3533;51.246;6.850;2023-06-14T04:08:31;5.17;;;4.87;;
6985;SDS011;3533;51.246;6.850;2023-06-14T04:10:57;5.10;;;4.80;;
6985;SDS011;3533;51.246;6.850;2023-06-14T04:13:22;5.10;;;4.83;;
6985;SDS011;3533;51.246;6.850;2023-06-14T04:15:48;5.10;;;4.90;;
6985;SDS011;3533;51.246;6.850;2023-06-14T04:18:13;5.37;;;5.07;;
6985;SDS011;3533;51.246;6.850;2023-06-14T04:20:39;5.07;;;4.77;;
6985;SDS011;3533;51.246;6.850;2023-06-14T04:23:16;6.00;;;5.70;;
6985;SDS011;3533;51.246;6.850;2023-06-14T04:25:46;5.90;;;5.40;;
6985;SDS011;3533;51.246;6.850;2023-06-14T04:28:14;5.20;;;4.90;;
6985;SDS011;3533;51.246;6.850;2023-06-14T04:30:43;5.10;;;4.87;;
6985;SDS011;3533;51.246;6.850;2023-06-14T04:33:09;5.37;;;5.07;;
6985;SDS011;3533;51.246;6.850;2023-06-14T04:35:35;5.50;;;5.30;;
6985;SDS011;3533;51.246;6.850;2023-06-14T04:38:02;5.37;;;5.07;;
6985;SDS011;3533;51.246;6.850;2023-06-14T04:40:30;5.40;;;5.10;;
6985;SDS011;3533;51.246;6.850;2023-06-14T04:42:56;4.93;;;4.73;;
6985;SDS011;3533;51.246;6.850;2023-06-14T04:45:22;5.50;;;5.10;;
6985;SDS011;3533;51.246;6.850;2023-06-14T04:47:48;4.33;;;4.13;;
6985;SDS011;3533;51.246;6.850;2023-06-14T04:50:15;5.23;;;5.03;;
6985;SDS011;3533;51.246;6.850;2023-06-14T04:52:41;5.10;;;4.87;;
6985;SDS011;3533;51.246;6.850;2023-06-14T04:55:07;5.30;;;5.00;;
6985;SDS011;3533;51.246;6.850;2023-06-14T04:57:33;5.70;;;4.80;;
6985;SDS011;3533;51.246;6.850;2023-06-14T05:00:00;5.10;;;4.80;;
6985;SDS011;3533;51.246;6.850;2023-06-14T05:02:30;5.43;;;5.13;;
6985;SDS011;3533;51.246;6.850;2023-06-14T05:04:56;4.87;;;4.57;;
6985;SDS011;3533;51.246;6.850;2023-06-14T05:07:22;5.87;;;5.47;;
6985;SDS011;3533;51.246;6.850;2023-06-14T05:09:48;4.90;;;4.60;;
6985;SDS011;3533;51.246;6.850;2023-06-14T05:12:14;4.97;;;4.67;;
6985;SDS011;3533;51.246;6.850;2023-06-14T05:14:43;4.50;;;4.20;;
6985;SDS011;3533;51.246;6.850;2023-06-14T05:17:09;4.70;;;4.40;;
6985;SDS011;3533;51.246;6.850;2023-06-14T05:19:35;4.93;;;4.63;;
6985;SDS011;3533;51.246;6.850;2023-06-14T05:22:00;5.13;;;4.83;;
6985;SDS011;3533;51.246;6.850;2023-06-14T05:24:27;4.47;;;4.27;;
6985;SDS011;3533;51.246;6.850;2023-06-14T05:26:55;4.93;;;4.63;;
6985;SDS011;3533;51.246;6.850;2023-06-14T05:29:21;4.87;;;4.57;;
6985;SDS011;3533;51.246;6.850;2023-06-14T05:31:46;5.10;;;4.80;;
6985;SDS011;3533;51.246;6.850;2023-06-14T05:34:12;5.10;;;4.80;;
6985;SDS011;3533;51.246;6.850;2023-06-14T05:36:37;4.43;;;4.23;;
6985;SDS011;3533;51.246;6.850;2023-06-14T05:39:04;5.13;;;4.83;;
6985;SDS011;3533;51.246;6.850;2023-06-14T05:41:30;4.50;;;4.30;;
6985;SDS011;3533;51.246;6.850;2023-06-14T05:43:56;5.17;;;4.87;;
6985;SDS011;3533;51.246;6.850;2023-06-14T05:46:22;4.73;;;4.53;;
6985;SDS011;3533;51.246;6.850;2023-06-14T05:48:50;4.50;;;4.30;;
6985;SDS011;3533;51.246;6.850;2023-06-14T05:51:16;4.37;;;4.17;;
6985;SDS011;3533;51.246;6.850;2023-06-14T05:53:45;5.70;;;5.40;;
6985;SDS011;3533;51.246;6.850;2023-06-14T05:56:14;5.30;;;5.00;;
6985;SDS011;3533;51.246;6.850;2023-06-14T05:58:42;5.10;;;4.80;;
6985;SDS011;3533;51.246;6.850;2023-06-14T06:01:08;4.60;;;4.40;;
6985;SDS011;3533;51.246;6.850;2023-06-14T06:03:33;4.60;;;4.37;;
6985;SDS011;3533;51.246;6.850;2023-06-14T06:05:59;5.20;;;4.90;;
6985;SDS011;3533;51.246;6.850;2023-06-14T06:08:26;5.27;;;4.87;;
6985;SDS011;3533;51.246;6.850;2023-06-14T06:10:51;4.77;;;4.47;;
6985;SDS011;3533;51.246;6.850;2023-06-14T06:13:17;5.20;;;4.80;;
6985;SDS011;3533;51.246;6.850;2023-06-14T06:15:43;4.10;;;3.90;;
6985;SDS011;3533;51.246;6.850;2023-06-14T06:18:08;4.60;;;4.40;;
6985;SDS011;3533;51.246;6.850;2023-06-14T06:20:34;5.20;;;4.70;;
6985;SDS011;3533;51.246;6.850;2023-06-14T06:23:01;5.53;;;5.07;;
6985;SDS011;3533;51.246;6.850;2023-06-14T06:25:27;5.17;;;4.77;;
6985;SDS011;3533;51.246;6.850;2023-06-14T06:27:55;4.60;;;4.30;;
6985;SDS011;3533;51.246;6.850;2023-06-14T06:30:21;4.37;;;4.10;;
6985;SDS011;3533;51.246;6.850;2023-06-14T06:32:47;4.90;;;4.70;;
6985;SDS011;3533;51.246;6.850;2023-06-14T06:35:13;4.37;;;4.17;;
6985;SDS011;3533;51.246;6.850;2023-06-14T06:37:39;4.43;;;4.23;;
6985;SDS011;3533;51.246;6.850;2023-06-14T06:40:06;4.07;;;3.87;;
6985;SDS011;3533;51.246;6.850;2023-06-14T06:42:32;4.23;;;3.93;;
6985;SDS011;3533;51.246;6.850;2023-06-14T06:44:58;3.70;;;3.50;;
6985;SDS011;3533;51.246;6.850;2023-06-14T06:47:23;4.53;;;4.23;;
6985;SDS011;3533;51.246;6.850;2023-06-14T06:49:50;4.40;;;4.20;;
6985;SDS011;3533;51.246;6.850;2023-06-14T06:52:15;4.20;;;4.00;;
6985;SDS011;3533;51.246;6.850;2023-06-14T06:54:41;4.53;;;4.30;;
6985;SDS011;3533;51.246;6.850;2023-06-14T06:57:06;4.60;;;4.40;;
6985;SDS011;3533;51.246;6.850;2023-06-14T06:59:32;3.93;;;3.63;;
6985;SDS011;3533;51.246;6.850;2023-06-14T07:01:59;4.03;;;3.83;;
6985;SDS011;3533;51.246;6.850;2023-06-14T07:04:25;4.30;;;4.10;;
6985;SDS011;3533;51.246;6.850;2023-06-14T07:06:50;4.40;;;4.17;;
6985;SDS011;3533;51.246;6.850;2023-06-14T07:09:16;4.27;;;3.97;;
6985;SDS011;3533;51.246;6.850;2023-06-14T07:11:45;4.10;;;3.90;;
6985;SDS011;3533;51.246;6.850;2023-06-14T07:14:11;4.50;;;4.20;;
6985;SDS011;3533;51.246;6.850;2023-06-14T07:16:37;4.13;;;3.93;;
6985;SDS011;3533;51.246;6.850;2023-06-14T07:19:03;3.97;;;3.77;;
6985;SDS011;3533;51.246;6.850;2023-06-14T07:21:29;4.00;;;3.80;;
6985;SDS011;3533;51.246;6.850;2023-06-14T07:23:54;4.70;;;4.40;;
6985;SDS011;3533;51.246;6.850;2023-06-14T07:26:20;4.60;;;4.40;;
6985;SDS011;3533;51.246;6.850;2023-06-14T07:28:46;4.00;;;3.80;;
6985;SDS011;3533;51.246;6.850;2023-06-14T07:31:13;3.77;;;3.57;;
6985;SDS011;3533;51.246;6.850;2023-06-14T07:33:40;3.83;;;3.63;;
6985;SDS011;3533;51.246;6.850;2023-06-14T07:36:06;4.43;;;4.03;;
6985;SDS011;3533;51.246;6.850;2023-06-14T07:38:32;4.23;;;4.03;;
6985;SDS011;3533;51.246;6.850;2023-06-14T07:40:57;3.90;;;3.70;;
6985;SDS011;3533;51.246;6.850;2023-06-14T07:43:23;3.73;;;3.53;;
6985;SDS011;3533;51.246;6.850;2023-06-14T07:45:48;4.27;;;4.07;;
6985;SDS011;3533;51.246;6.850;2023-06-14T07:48:14;3.60;;;3.30;;
6985;SDS011;3533;51.246;6.850;2023-06-14T07:50:40;3.70;;;3.50;;
6985;SDS011;3533;51.246;6.850;2023-06-14T07:53:06;3.70;;;3.50;;
6985;SDS011;3533;51.246;6.850;2023-06-14T07:55:31;4.00;;;3.80;;
6985;SDS011;3533;51.246;6.850;2023-06-14T07:57:58;3.17;;;3.00;;
6985;SDS011;3533;51.246;6.850;2023-06-14T08:00:24;3.83;;;3.63;;
6985;SDS011;3533;51.246;6.850;2023-06-14T08:02:49;3.77;;;3.47;;
6985;SDS011;3533;51.246;6.850;2023-06-14T08:05:16;3.97;;;3.67;;
6985;SDS011;3533;51.246;6.850;2023-06-14T08:07:42;3.80;;;3.60;;
6985;SDS011;3533;51.246;6.850;2023-06-14T08:10:08;3.67;;;3.47;;
6985;SDS011;3533;51.246;6.850;2023-06-14T08:12:34;3.10;;;3.00;;
6985;SDS011;3533;51.246;6.850;2023-06-14T08:15:00;3.47;;;3.27;;
6985;SDS011;3533;51.246;6.850;2023-06-14T08:17:25;3.37;;;3.17;;
6985;SDS011;3533;51.246;6.850;2023-06-14T08:19:51;3.10;;;3.00;;
6985;SDS011;3533;51.246;6.850;2023-06-14T08:22:19;3.37;;;3.17;;
6985;SDS011;3533;51.246;6.850;2023-06-14T08:24:46;4.10;;;3.80;;
6985;SDS011;3533;51.246;6.850;2023-06-14T08:27:12;3.60;;;3.40;;
6985;SDS011;3533;51.246;6.850;2023-06-14T08:29:38;2.90;;;2.80;;
6985;SDS011;3533;51.246;6.850;2023-06-14T08:32:05;3.70;;;3.40;;
6985;SDS011;3533;51.246;6.850;2023-06-14T08:34:31;3.37;;;3.17;;
6985;SDS011;3533;51.246;6.850;2023-06-14T08:36:57;3.60;;;3.40;;
6985;SDS011;3533;51.246;6.850;2023-06-14T08:39:23;3.83;;;3.53;;
6985;SDS011;3533;51.246;6.850;2023-06-14T08:41:48;3.23;;;3.03;;
6985;SDS011;3533;51.246;6.850;2023-06-14T08:44:16;3.37;;;3.17;;
6985;SDS011;3533;51.246;6.850;2023-06-14T08:46:42;3.33;;;3.13;;
6985;SDS011;3533;51.246;6.850;2023-06-14T08:49:08;3.20;;;3.00;;
6985;SDS011;3533;51.246;6.850;2023-06-14T08:51:36;3.33;;;3.13;;
6985;SDS011;3533;51.246;6.850;2023-06-14T08:54:03;3.07;;;2.87;;
6985;SDS011;3533;51.246;6.850;2023-06-14T08:56:29;3.37;;;3.17;;
6985;SDS011;3533;51.246;6.850;2023-06-14T08:58:56;2.93;;;2.83;;
6985;SDS011;3533;51.246;6.850;2023-06-14T09:01:25;2.67;;;2.57;;
6985;SDS011;3533;51.246;6.850;2023-06-14T09:03:51;3.00;;;2.80;;
6985;SDS011;3533;51.246;6.850;2023-06-14T09:06:20;2.53;;;2.43;;
6985;SDS011;3533;51.246;6.850;2023-06-14T09:08:48;2.60;;;2.50;;
6985;SDS011;3533;51.246;6.850;2023-06-14T09:11:14;3.07;;;2.77;;
6985;SDS011;3533;51.246;6.850;2023-06-14T09:13:41;3.00;;;2.80;;
6985;SDS011;3533;51.246;6.850;2023-06-14T09:16:07;3.30;;;3.10;;
6985;SDS011;3533;51.246;6.850;2023-06-14T09:21:12;3.13;;;2.97;;
6985;SDS011;3533;51.246;6.850;2023-06-14T09:23:39;2.30;;;2.20;;
6985;SDS011;3533;51.246;6.850;2023-06-14T09:26:06;2.67;;;2.57;;
6985;SDS011;3533;51.246;6.850;2023-06-14T09:28:36;3.30;;;3.10;;
6985;SDS011;3533;51.246;6.850;2023-06-14T09:31:06;2.40;;;2.30;;
6985;SDS011;3533;51.246;6.850;2023-06-14T09:33:33;2.90;;;2.70;;
6985;SDS011;3533;51.246;6.850;2023-06-14T09:35:59;2.23;;;2.13;;
6985;SDS011;3533;51.246;6.850;2023-06-14T09:38:25;2.40;;;2.20;;
6985;SDS011;3533;51.246;6.850;2023-06-14T09:40:51;2.93;;;2.73;;
6985;SDS011;3533;51.246;6.850;2023-06-14T09:43:16;2.17;;;2.07;;
6985;SDS011;3533;51.246;6.850;2023-06-14T09:45:43;2.33;;;2.23;;
6985;SDS011;3533;51.246;6.850;2023-06-14T09:48:10;2.27;;;2.17;;
6985;SDS011;3533;51.246;6.850;2023-06-14T09:50:36;2.03;;;1.93;;
6985;SDS011;3533;51.246;6.850;2023-06-14T09:53:03;2.27;;;2.17;;
6985;SDS011;3533;51.246;6.850;2023-06-14T09:55:33;2.20;;;2.00;;
6985;SDS011;3533;51.246;6.850;2023-06-14T09:58:04;2.43;;;2.33;;
6985;SDS011;3533;51.246;6.850;2023-06-14T10:00:31;2.77;;;2.60;;
6985;SDS011;3533;51.246;6.850;2023-06-14T10:03:00;2.20;;;2.10;;
6985;SDS011;3533;51.246;6.850;2023-06-14T10:05:33;2.27;;;2.17;;
6985;SDS011;3533;51.246;6.850;2023-06-14T10:08:12;2.10;;;2.00;;
6985;SDS011;3533;51.246;6.850;2023-06-14T10:10:41;1.80;;;1.70;;
6985;SDS011;3533;51.246;6.850;2023-06-14T10:13:07;2.10;;;2.00;;
6985;SDS011;3533;51.246;6.850;2023-06-14T10:15:46;2.00;;;1.90;;
6985;SDS011;3533;51.246;6.850;2023-06-14T10:18:41;1.83;;;1.73;;
6985;SDS011;3533;51.246;6.850;2023-06-14T10:23:57;2.10;;;2.00;;
6985;SDS011;3533;51.246;6.850;2023-06-14T10:26:26;2.00;;;1.90;;
6985;SDS011;3533;51.246;6.850;2023-06-14T10:28:58;2.00;;;1.80;;
6985;SDS011;3533;51.246;6.850;2023-06-14T10:34:12;1.80;;;1.70;;
6985;SDS011;3533;51.246;6.850;2023-06-14T10:37:06;2.27;;;2.10;;
6985;SDS011;3533;51.246;6.850;2023-06-14T10:39:40;1.80;;;1.70;;
6985;SDS011;3533;51.246;6.850;2023-06-14T10:42:07;1.93;;;1.83;;
6985;SDS011;3533;51.246;6.850;2023-06-14T10:44:33;2.07;;;1.90;;
6985;SDS011;3533;51.246;6.850;2023-06-14T10:47:21;2.00;;;1.90;;
6985;SDS011;3533;51.246;6.850;2023-06-14T10:49:51;1.83;;;1.73;;
6985;SDS011;3533;51.246;6.850;2023-06-14T10:52:20;1.90;;;1.80;;
6985;SDS011;3533;51.246;6.850;2023-06-14T10:57:26;1.80;;;1.70;;
6985;SDS011;3533;51.246;6.850;2023-06-14T10:59:52;1.80;;;1.70;;
6985;SDS011;3533;51.246;6.850;2023-06-14T11:04:48;2.00;;;1.90;;
6985;SDS011;3533;51.246;6.850;2023-06-14T11:13:06;1.83;;;1.73;;
6985;SDS011;3533;51.246;6.850;2023-06-14T11:15:33;1.70;;;1.60;;
6985;SDS011;3533;51.246;6.850;2023-06-14T11:18:00;1.97;;;1.87;;
6985;SDS011;3533;51.246;6.850;2023-06-14T11:20:29;1.70;;;1.60;;
6985;SDS011;3533;51.246;6.850;2023-06-14T11:22:57;1.80;;;1.70;;
6985;SDS011;3533;51.246;6.850;2023-06-14T11:25:22;1.83;;;1.73;;
6985;SDS011;3533;51.246;6.850;2023-06-14T11:27:51;2.10;;;2.00;;
6985;SDS011;3533;51.246;6.850;2023-06-14T11:30:17;1.50;;;1.40;;
6985;SDS011;3533;51.246;6.850;2023-06-14T11:32:49;1.70;;;1.60;;
6985;SDS011;3533;51.246;6.850;2023-06-14T11:35:17;1.60;;;1.50;;
6985;SDS011;3533;51.246;6.850;2023-06-14T11:37:43;1.90;;;1.80;;
6985;SDS011;3533;51.246;6.850;2023-06-14T11:40:10;1.83;;;1.73;;
6985;SDS011;3533;51.246;6.850;2023-06-14T11:42:37;1.60;;;1.50;;
6985;SDS011;3533;51.246;6.850;2023-06-14T11:45:09;1.83;;;1.73;;
6985;SDS011;3533;51.246;6.850;2023-06-14T11:47:36;1.53;;;1.43;;
6985;SDS011;3533;51.246;6.850;2023-06-14T11:50:04;1.70;;;1.60;;
6985;SDS011;3533;51.246;6.850;2023-06-14T11:52:31;1.73;;;1.63;;
6985;SDS011;3533;51.246;6.850;2023-06-14T11:54:57;1.50;;;1.40;;
6985;SDS011;3533;51.246;6.850;2023-06-14T11:57:24;1.70;;;1.60;;
6985;SDS011;3533;51.246;6.850;2023-06-14T11:59:50;1.70;;;1.60;;
6985;SDS011;3533;51.246;6.850;2023-06-14T12:02:17;1.73;;;1.63;;
6985;SDS011;3533;51.246;6.850;2023-06-14T12:04:43;2.00;;;1.90;;
6985;SDS011;3533;51.246;6.850;2023-06-14T12:07:12;1.90;;;1.80;;
6985;SDS011;3533;51.246;6.850;2023-06-14T12:10:03;1.60;;;1.50;;
6985;SDS011;3533;51.246;6.850;2023-06-14T12:12:34;1.60;;;1.50;;
6985;SDS011;3533;51.246;6.850;2023-06-14T12:15:02;1.90;;;1.80;;
6985;SDS011;3533;51.246;6.850;2023-06-14T12:17:33;1.70;;;1.60;;
6985;SDS011;3533;51.246;6.850;2023-06-14T12:20:04;1.80;;;1.70;;
6985;SDS011;3533;51.246;6.850;2023-06-14T12:22:36;1.70;;;1.60;;
6985;SDS011;3533;51.246;6.850;2023-06-14T12:25:02;1.60;;;1.50;;
6985;SDS011;3533;51.246;6.850;2023-06-14T12:27:29;1.70;;;1.60;;
6985;SDS011;3533;51.246;6.850;2023-06-14T12:30:01;1.87;;;1.57;;
6985;SDS011;3533;51.246;6.850;2023-06-14T12:32:28;1.40;;;1.30;;
6985;SDS011;3533;51.246;6.850;2023-06-14T12:34:54;2.07;;;1.97;;
6985;SDS011;3533;51.246;6.850;2023-06-14T12:37:20;1.73;;;1.63;;
6985;SDS011;3533;51.246;6.850;2023-06-14T12:39:46;1.80;;;1.70;;
6985;SDS011;3533;51.246;6.850;2023-06-14T12:42:12;1.60;;;1.50;;
6985;SDS011;3533;51.246;6.850;2023-06-14T12:44:39;1.70;;;1.60;;
6985;SDS011;3533;51.246;6.850;2023-06-14T12:47:06;1.50;;;1.40;;
6985;SDS011;3533;51.246;6.850;2023-06-14T12:49:32;1.63;;;1.50;;
6985;SDS011;3533;51.246;6.850;2023-06-14T12:51:58;1.80;;;1.70;;
6985;SDS011;3533;51.246;6.850;2023-06-14T12:54:23;1.60;;;1.50;;
6985;SDS011;3533;51.246;6.850;2023-06-14T12:56:50;1.90;;;1.80;;
6985;SDS011;3533;51.246;6.850;2023-06-14T12:59:16;1.70;;;1.60;;
6985;SDS011;3533;51.246;6.850;2023-06-14T13:01:43;1.97;;;1.87;;
6985;SDS011;3533;51.246;6.850;2023-06-14T13:04:09;1.60;;;1.50;;
6985;SDS011;3533;51.246;6.850;2023-06-14T13:06:35;1.70;;;1.60;;
6985;SDS011;3533;51.246;6.850;2023-06-14T13:09:01;1.83;;;1.73;;
6985;SDS011;3533;51.246;6.850;2023-06-14T13:11:28;1.77;;;1.67;;
6985;SDS011;3533;51.246;6.850;2023-06-14T13:13:55;1.80;;;1.70;;
6985;SDS011;3533;51.246;6.850;2023-06-14T13:16:20;2.00;;;1.90;;
6985;SDS011;3533;51.246;6.850;2023-06-14T13:18:46;1.70;;;1.60;;
6985;SDS011;3533;51.246;6.850;2023-06-14T13:21:12;1.50;;;1.40;;
6985;SDS011;3533;51.246;6.850;2023-06-14T13:23:37;1.90;;;1.80;;
6985;SDS011;3533;51.246;6.850;2023-06-14T13:26:03;1.60;;;1.50;;
6985;SDS011;3533;51.246;6.850;2023-06-14T13:28:28;1.70;;;1.60;;
6985;SDS011;3533;51.246;6.850;2023-06-14T13:30:54;2.03;;;1.40;;
6985;SDS011;3533;51.246;6.850;2023-06-14T13:33:20;4.83;;;1.80;;
6985;SDS011;3533;51.246;6.850;2023-06-14T13:35:46;1.50;;;1.40;;
6985;SDS011;3533;51.246;6.850;2023-06-14T13:38:13;1.60;;;1.50;;
6985;SDS011;3533;51.246;6.850;2023-06-14T13:40:39;1.60;;;1.50;;
6985;SDS011;3533;51.246;6.850;2023-06-14T13:43:05;1.63;;;1.53;;
6985;SDS011;3533;51.246;6.850;2023-06-14T13:45:31;1.70;;;1.60;;
6985;SDS011;3533;51.246;6.850;2023-06-14T13:47:56;1.70;;;1.60;;
6985;SDS011;3533;51.246;6.850;2023-06-14T13:50:22;1.60;;;1.50;;
6985;SDS011;3533;51.246;6.850;2023-06-14T13:52:47;1.40;;;1.30;;
6985;SDS011;3533;51.246;6.850;2023-06-14T13:55:13;1.80;;;1.70;;
6985;SDS011;3533;51.246;6.850;2023-06-14T13:57:39;1.70;;;1.60;;
6985;SDS011;3533;51.246;6.850;2023-06-14T14:00:05;1.60;;;1.50;;
6985;SDS011;3533;51.246;6.850;2023-06-14T14:02:32;1.50;;;1.40;;
6985;SDS011;3533;51.246;6.850;2023-06-14T14:04:57;1.40;;;1.30;;
6985;SDS011;3533;51.246;6.850;2023-06-14T14:07:23;1.80;;;1.70;;
6985;SDS011;3533;51.246;6.850;2023-06-14T14:09:49;2.13;;;1.67;;
6985;SDS011;3533;51.246;6.850;2023-06-14T14:12:14;1.30;;;1.20;;
6985;SDS011;3533;51.246;6.850;2023-06-14T14:14:40;1.70;;;1.57;;
6985;SDS011;3533;51.246;6.850;2023-06-14T14:17:06;1.60;;;1.50;;
6985;SDS011;3533;51.246;6.850;2023-06-14T14:19:31;1.60;;;1.50;;
6985;SDS011;3533;51.246;6.850;2023-06-14T14:21:57;1.60;;;1.50;;
6985;SDS011;3533;51.246;6.850;2023-06-14T14:24:23;1.63;;;1.53;;
6985;SDS011;3533;51.246;6.850;2023-06-14T14:26:48;1.53;;;1.43;;
6985;SDS011;3533;51.246;6.850;2023-06-14T14:29:15;1.50;;;1.40;;
6985;SDS011;3533;51.246;6.850;2023-06-14T14:31:42;1.80;;;1.70;;
6985;SDS011;3533;51.246;6.850;2023-06-14T14:34:07;1.87;;;1.77;;
6985;SDS011;3533;51.246;6.850;2023-06-14T14:36:33;1.50;;;1.40;;
6985;SDS011;3533;51.246;6.850;2023-06-14T14:39:01;1.57;;;1.47;;
6985;SDS011;3533;51.246;6.850;2023-06-14T14:41:27;1.40;;;1.30;;
6985;SDS011;3533;51.246;6.850;2023-06-14T14:43:52;1.60;;;1.50;;
6985;SDS011;3533;51.246;6.850;2023-06-14T14:46:18;1.90;;;1.80;;
6985;SDS011;3533;51.246;6.850;2023-06-14T14:48:43;1.73;;;1.63;;
6985;SDS011;3533;51.246;6.850;2023-06-14T14:51:09;1.53;;;1.43;;
6985;SDS011;3533;51.246;6.850;2023-06-14T14:53:35;2.30;;;1.53;;
6985;SDS011;3533;51.246;6.850;2023-06-14T14:56:00;1.60;;;1.50;;
6985;SDS011;3533;51.246;6.850;2023-06-14T14:58:26;1.40;;;1.30;;
6985;SDS011;3533;51.246;6.850;2023-06-14T15:00:51;1.53;;;1.33;;
6985;SDS011;3533;51.246;6.850;2023-06-14T15:03:17;1.47;;;1.37;;
6985;SDS011;3533;51.246;6.850;2023-06-14T15:05:43;1.53;;;1.43;;
6985;SDS011;3533;51.246;6.850;2023-06-14T15:08:08;1.70;;;1.60;;
6985;SDS011;3533;51.246;6.850;2023-06-14T15:10:37;1.60;;;1.50;;
6985;SDS011;3533;51.246;6.850;2023-06-14T15:13:06;1.67;;;1.57;;
6985;SDS011;3533;51.246;6.850;2023-06-14T15:15:33;1.60;;;1.50;;
6985;SDS011;3533;51.246;6.850;2023-06-14T15:17:59;1.60;;;1.50;;
6985;SDS011;3533;51.246;6.850;2023-06-14T15:20:25;1.50;;;1.40;;
6985;SDS011;3533;51.246;6.850;2023-06-14T15:22:51;1.60;;;1.50;;
6985;SDS011;3533;51.246;6.850;2023-06-14T15:25:17;1.47;;;1.37;;
6985;SDS011;3533;51.246;6.850;2023-06-14T15:27:43;1.80;;;1.70;;
6985;SDS011;3533;51.246;6.850;2023-06-14T15:30:08;1.90;;;1.80;;
6985;SDS011;3533;51.246;6.850;2023-06-14T15:32:34;1.67;;;1.57;;
6985;SDS011;3533;51.246;6.850;2023-06-14T15:35:00;1.70;;;1.60;;
6985;SDS011;3533;51.246;6.850;2023-06-14T15:37:25;1.60;;;1.50;;